Friday, October 31, 2014, 1:41 PM EDT
Back to Local

KPTW, Pottstown Limerick Airport

Location: Royersford, PA, United States Lat: 40.233
Local Time: 1:41 PM EDT (17:41 GMT) Lon: -75.55
Time Zone: US/Eastern Elev: 291 ft

Show me the last for .
Show Coded

Time T Td Feel RH Dir Speed Gust Alt SLP Vis Weather Sky Remarks
2014-10-31 12:54 51 36 - 56 Variable 3 - 29.95 29.95 10 CLR None
2014-10-31 11:54 49 36 47 60 30° 5 - 29.99 29.98 10 CLR None
2014-10-31 10:54 48 36 45 62 50° 7 - 30.01 30.01 10 CLR None
2014-10-31 09:54 43 34 40 70 40° 5 - 30.02 30.02 10 CLR None
2014-10-31 08:54 34 31 - 88 - Calm - 30.04 30.03 10 CLR None
2014-10-31 07:54 30 28 - 92 - Calm - 30.04 30.03 10 CLR 6-hr Min Temp (8am): 30.0°F
6-hr Max Temp (8am): 35.1°F
2014-10-31 06:54 30 29 - 95 - Calm - 30.04 30.03 10 CLR None
2014-10-31 05:54 31 29 - 92 - Calm - 30.04 30.03 10 CLR None
2014-10-31 04:54 32 29 - 88 - Calm - 30.03 30.03 10 CLR None
2014-10-31 02:54 33 31 - 91 - Calm - 30.04 30.03 10 CLR None
2014-10-31 01:54 34 31 - 88 - Calm - 30.04 30.04 10 CLR 6-hr Min Temp (2am): 34.0°F
6-hr Max Temp (2am): 46.0°F
2014-10-31 00:54 35 32 - 88 - Calm - 30.05 30.04 10 CLR 24-hr Min Temp (1am): 35.1°F
24-hr Max Temp (1am): 57.9°F
2014-10-30 23:54 36 33 - 89 - Calm - 30.05 30.04 10 CLR None
2014-10-30 22:54 37 33 - 85 - Calm - 30.05 30.05 10 CLR None
2014-10-30 21:54 42 34 40 72 20° 3 - 30.05 30.05 10 CLR None
2014-10-30 20:54 43 34 39 70 30° 6 - 30.05 30.04 10 CLR None
2014-10-30 19:54 45 34 43 65 60° 5 - 30.04 30.04 10 CLR 6-hr Min Temp (8pm): 45.0°F
6-hr Max Temp (8pm): 55.9°F
2014-10-30 18:54 49 34 48 56 330° 3 - 30.04 30.03 10 CLR None
2014-10-30 17:54 52 36 - 54 310° 3 - 30.03 30.02 10 BKN060 None
2014-10-30 16:54 54 34 - 46 320° 6 - 30.01 30.01 10 OVC060 None
2014-10-30 15:54 55 35 - 46 320° 8 - 30.01 30.00 10 OVC060 None
2014-10-30 14:54 55 36 - 48 350° 6 - 30.01 30.00 10 SCT048 OVC060 None
2014-10-30 13:54 56 38 - 50 350° 8 - 30.01 30.01 10 BKN047 6-hr Min Temp (2pm): 37.9°F
6-hr Max Temp (2pm): 57.9°F

Support USWX by starting your Amazon purchase here.